createdAt,value
2023-07-06T00:01:31.981Z,85.50
2023-07-06T00:04:00.892Z,85.48
2023-07-06T00:06:30.424Z,85.45
2023-07-06T00:09:00.575Z,84.99
2023-07-06T00:11:35.431Z,84.88
2023-07-06T00:14:05.017Z,84.36
2023-07-06T00:16:33.684Z,84.44
2023-07-06T00:19:02.673Z,84.42
2023-07-06T00:21:32.392Z,84.26
2023-07-06T00:24:03.038Z,83.83
2023-07-06T00:26:31.895Z,83.78
2023-07-06T00:29:00.725Z,83.73
2023-07-06T00:31:42.482Z,84.03
2023-07-06T00:34:11.369Z,83.81
2023-07-06T00:36:40.154Z,84.03
2023-07-06T00:39:14.239Z,83.86
2023-07-06T00:41:45.421Z,84.16
2023-07-06T00:44:40.159Z,84.35
2023-07-06T00:47:13.504Z,84.29
2023-07-06T00:49:43.231Z,84.25
2023-07-06T00:52:12.913Z,84.45
2023-07-06T00:54:43.805Z,84.18
2023-07-06T00:57:16.035Z,84.17
2023-07-06T00:59:45.800Z,83.83
2023-07-06T01:02:18.014Z,83.83
2023-07-06T01:04:47.433Z,83.63
2023-07-06T01:07:22.364Z,83.76
2023-07-06T01:09:54.477Z,83.82
2023-07-06T01:12:26.532Z,83.72
2023-07-06T01:14:57.653Z,83.65
2023-07-06T01:17:34.841Z,84.12
2023-07-06T01:20:22.621Z,84.10
2023-07-06T01:23:18.610Z,84.26
2023-07-06T01:26:15.480Z,84.42
2023-07-06T01:29:05.918Z,84.40
2023-07-06T01:31:44.393Z,84.28
2023-07-06T01:34:23.216Z,84.15
2023-07-06T01:36:58.877Z,83.75
2023-07-06T01:39:29.324Z,83.93
2023-07-06T01:42:31.680Z,84.07
2023-07-06T01:45:06.531Z,84.05
2023-07-06T01:47:41.794Z,83.82
2023-07-06T01:50:13.711Z,83.84
2023-07-06T01:52:59.378Z,84.38
2023-07-06T01:55:33.166Z,84.65
2023-07-06T01:58:12.423Z,84.90
2023-07-06T02:00:47.893Z,84.90
2023-07-06T02:03:19.437Z,85.01
2023-07-06T02:05:48.809Z,85.16
2023-07-06T02:08:19.765Z,85.24
2023-07-06T02:10:48.877Z,85.59
2023-07-06T02:13:19.393Z,85.67
2023-07-06T02:15:49.282Z,85.47
2023-07-06T02:18:19.747Z,85.55
2023-07-06T02:20:48.592Z,85.12
2023-07-06T02:23:17.385Z,84.90
2023-07-06T02:25:46.362Z,84.79
2023-07-06T02:28:15.082Z,84.58
2023-07-06T02:30:43.919Z,84.69
2023-07-06T02:33:13.482Z,84.93
2023-07-06T02:35:47.244Z,84.69
2023-07-06T02:38:18.461Z,84.40
2023-07-06T02:40:47.615Z,84.31
2023-07-06T02:43:16.539Z,84.41
2023-07-06T02:45:48.532Z,84.36
2023-07-06T02:48:19.319Z,84.39
2023-07-06T02:50:52.176Z,84.97
2023-07-06T02:53:21.712Z,84.98
2023-07-06T02:55:53.302Z,85.54
2023-07-06T02:58:22.192Z,85.60
2023-07-06T03:00:52.331Z,85.64
2023-07-06T03:03:21.204Z,85.56
2023-07-06T03:05:51.552Z,85.91
2023-07-06T03:08:20.566Z,85.87
2023-07-06T03:10:49.735Z,86.08
2023-07-06T03:13:19.223Z,86.25
2023-07-06T03:15:53.000Z,86.77
2023-07-06T03:18:22.024Z,86.90
2023-07-06T03:20:52.202Z,86.94
2023-07-06T03:23:22.868Z,86.82
2023-07-06T03:25:53.716Z,87.24
2023-07-06T03:28:25.983Z,87.37
2023-07-06T03:30:58.542Z,87.48
2023-07-06T03:33:27.790Z,87.53
2023-07-06T03:36:00.300Z,87.55
2023-07-06T03:38:31.371Z,87.50
2023-07-06T03:41:05.060Z,87.46
2023-07-06T03:43:34.381Z,87.52
2023-07-06T03:46:04.752Z,87.29
2023-07-06T03:48:33.707Z,86.94
2023-07-06T03:51:06.460Z,86.76
2023-07-06T03:53:36.997Z,86.54
2023-07-06T03:56:07.004Z,86.54
2023-07-06T03:58:40.245Z,86.59
2023-07-06T04:01:09.627Z,86.45
2023-07-06T04:03:38.428Z,86.50
2023-07-06T04:06:09.840Z,86.31
2023-07-06T04:08:39.351Z,86.19
2023-07-06T04:11:10.369Z,86.18
2023-07-06T04:13:39.305Z,86.21
2023-07-06T04:16:08.314Z,86.05
2023-07-06T04:18:37.238Z,86.20
2023-07-06T04:21:06.015Z,86.29
2023-07-06T04:23:37.310Z,86.16
2023-07-06T04:26:06.548Z,86.06
2023-07-06T04:28:39.933Z,85.70
2023-07-06T04:31:09.196Z,85.02
2023-07-06T04:33:38.086Z,84.32
2023-07-06T04:36:08.271Z,83.89
2023-07-06T04:38:38.204Z,83.56
2023-07-06T04:41:07.394Z,82.97
2023-07-06T04:43:36.215Z,82.75
2023-07-06T04:46:05.103Z,82.38
2023-07-06T04:48:34.546Z,82.26
2023-07-06T04:51:03.217Z,82.07
2023-07-06T04:53:34.422Z,81.84
2023-07-06T04:56:05.240Z,81.88
2023-07-06T04:58:34.135Z,81.46
2023-07-06T05:01:07.260Z,81.41
2023-07-06T05:03:37.348Z,81.68
2023-07-06T05:06:09.425Z,81.81
2023-07-06T05:08:38.319Z,82.08
2023-07-06T05:11:08.693Z,82.67
2023-07-06T05:13:38.764Z,82.65
2023-07-06T05:16:07.673Z,82.44
2023-07-06T05:18:36.859Z,82.46
2023-07-06T05:21:06.769Z,82.60
2023-07-06T05:23:35.778Z,82.64
2023-07-06T05:26:05.253Z,82.50
2023-07-06T05:28:35.768Z,82.73
2023-07-06T05:31:05.850Z,83.29
2023-07-06T05:33:35.843Z,83.25
2023-07-06T05:36:04.987Z,83.20
2023-07-06T05:38:33.739Z,83.46
2023-07-06T05:41:04.594Z,83.64
2023-07-06T05:43:35.037Z,83.72
2023-07-06T05:46:04.136Z,83.65
2023-07-06T05:48:33.083Z,83.07
2023-07-06T05:51:02.045Z,82.80
2023-07-06T05:53:30.814Z,82.11
2023-07-06T05:56:00.692Z,81.95
2023-07-06T05:58:29.597Z,81.43
2023-07-06T06:01:00.960Z,81.06
2023-07-06T06:03:30.509Z,80.48
2023-07-06T06:08:30.535Z,77.54
2023-07-06T06:11:01.742Z,76.54
2023-07-06T06:13:31.874Z,75.80
2023-07-06T06:16:02.125Z,75.28
2023-07-06T06:18:31.276Z,74.84
2023-07-06T06:21:00.346Z,74.31
2023-07-06T06:23:29.242Z,73.44
2023-07-06T06:25:58.339Z,72.68
2023-07-06T06:28:27.645Z,72.52
2023-07-06T06:30:56.846Z,72.20
2023-07-06T06:33:27.087Z,71.65
2023-07-06T06:36:00.977Z,71.53
2023-07-06T06:38:29.776Z,71.05
2023-07-06T06:41:01.520Z,70.40
2023-07-06T06:43:30.315Z,70.31
2023-07-06T06:45:59.442Z,70.07
2023-07-06T06:48:29.737Z,69.79
2023-07-06T06:50:58.865Z,69.20
2023-07-06T06:53:27.785Z,69.12
2023-07-06T06:55:57.246Z,69.06
2023-07-06T06:58:27.476Z,68.59
2023-07-06T07:00:59.874Z,68.02
2023-07-06T07:03:30.493Z,67.73
2023-07-06T07:06:03.326Z,67.27
2023-07-06T07:08:32.046Z,67.15
2023-07-06T07:11:14.269Z,66.48
2023-07-06T07:13:50.726Z,66.33
2023-07-06T07:16:20.185Z,66.00
2023-07-06T07:18:50.529Z,65.90
2023-07-06T07:21:20.721Z,65.65
2023-07-06T07:23:52.121Z,65.46
2023-07-06T07:26:23.578Z,65.22
2023-07-06T07:28:53.370Z,64.88
2023-07-06T07:31:23.786Z,64.80
2023-07-06T07:33:54.005Z,64.53
2023-07-06T07:36:23.721Z,64.24
2023-07-06T07:38:55.072Z,64.25
2023-07-06T07:41:24.005Z,64.30
2023-07-06T07:43:52.822Z,64.11
2023-07-06T07:46:24.354Z,64.31
2023-07-06T07:48:55.488Z,64.10
2023-07-06T07:51:28.171Z,63.74
2023-07-06T07:53:58.622Z,63.19
2023-07-06T07:56:29.663Z,62.65
2023-07-06T07:58:58.688Z,62.12
2023-07-06T08:01:27.954Z,61.56
2023-07-06T08:03:58.672Z,61.45
2023-07-06T08:06:27.507Z,60.65
2023-07-06T08:08:56.465Z,60.18
2023-07-06T08:11:26.801Z,59.86
2023-07-06T08:13:58.349Z,59.41
2023-07-06T08:16:27.545Z,59.35
2023-07-06T08:19:02.767Z,59.07
2023-07-06T08:22:08.549Z,58.77
2023-07-06T08:24:37.932Z,58.72
2023-07-06T08:27:07.371Z,58.57
2023-07-06T08:29:36.074Z,58.20
2023-07-06T08:32:05.512Z,57.92
2023-07-06T08:34:36.734Z,57.84
2023-07-06T08:37:06.061Z,57.73
2023-07-06T08:39:35.132Z,57.44
2023-07-06T08:42:04.133Z,57.18
2023-07-06T08:44:32.864Z,57.11
2023-07-06T08:47:01.829Z,57.54
2023-07-06T08:49:33.960Z,57.32
2023-07-06T08:52:07.773Z,57.30
2023-07-06T08:54:39.904Z,57.25
2023-07-06T08:57:16.985Z,57.02
2023-07-06T08:59:50.016Z,56.41
2023-07-06T09:02:21.372Z,56.60
2023-07-06T09:04:52.432Z,56.73
2023-07-06T09:07:28.172Z,56.79
2023-07-06T09:10:06.865Z,57.05
2023-07-06T09:12:47.655Z,57.00
2023-07-06T09:15:21.934Z,56.31
2023-07-06T09:17:53.340Z,55.98
2023-07-06T09:20:24.181Z,55.65
2023-07-06T09:22:54.489Z,55.48
2023-07-06T09:25:29.855Z,55.14
2023-07-06T09:28:00.911Z,54.96
2023-07-06T09:30:32.362Z,54.27
2023-07-06T09:33:19.960Z,54.61
2023-07-06T09:35:55.323Z,53.95
2023-07-06T09:38:27.327Z,53.38
2023-07-06T09:40:57.160Z,52.82
2023-07-06T09:43:28.719Z,52.47
2023-07-06T09:46:02.351Z,52.27
2023-07-06T09:48:37.656Z,51.69
2023-07-06T09:51:14.545Z,51.25
2023-07-06T09:53:50.187Z,51.32
2023-07-06T09:56:19.273Z,51.65
2023-07-06T09:58:50.945Z,50.96
2023-07-06T10:01:35.451Z,50.85
2023-07-06T10:04:23.378Z,50.17
2023-07-06T10:07:07.003Z,49.92
2023-07-06T10:09:41.973Z,49.48
2023-07-06T10:12:20.436Z,50.01
2023-07-06T10:14:53.124Z,50.04
2023-07-06T10:17:37.744Z,49.98
2023-07-06T10:20:19.405Z,49.75
2023-07-06T10:23:06.787Z,48.90
2023-07-06T10:25:44.916Z,48.92
2023-07-06T10:28:20.037Z,48.10
2023-07-06T10:30:52.706Z,47.58
2023-07-06T10:33:28.982Z,47.56
2023-07-06T10:36:00.081Z,47.80
2023-07-06T10:38:29.112Z,46.77
2023-07-06T10:41:24.159Z,46.58
2023-07-06T10:44:00.728Z,46.16
2023-07-06T10:46:35.199Z,45.43
2023-07-06T10:49:19.812Z,45.61
2023-07-06T10:51:52.052Z,45.11
2023-07-06T10:54:26.144Z,44.91
2023-07-06T10:57:04.266Z,44.57
2023-07-06T10:59:40.241Z,44.01
2023-07-06T11:02:22.221Z,44.98
2023-07-06T11:05:09.716Z,45.27
2023-07-06T11:07:47.564Z,43.71
2023-07-06T11:10:33.407Z,44.10
2023-07-06T11:13:20.432Z,43.41
2023-07-06T11:16:03.527Z,43.66
2023-07-06T11:18:40.479Z,43.83
2023-07-06T11:21:30.455Z,44.24
2023-07-06T11:24:08.138Z,43.68
2023-07-06T11:26:44.186Z,44.19
2023-07-06T11:29:13.411Z,44.94
2023-07-06T11:32:00.668Z,44.94
2023-07-06T11:34:39.689Z,44.61
2023-07-06T11:37:26.847Z,44.55
2023-07-06T11:40:08.385Z,44.34
2023-07-06T11:42:54.904Z,44.18
2023-07-06T11:45:32.652Z,44.60
2023-07-06T11:48:21.364Z,43.35
2023-07-06T11:50:51.795Z,43.05
2023-07-06T11:53:44.715Z,42.80
2023-07-06T11:56:34.357Z,42.39
2023-07-06T11:59:09.236Z,41.82
2023-07-06T12:01:47.494Z,41.93
2023-07-06T12:04:21.646Z,41.88
2023-07-06T12:06:51.908Z,41.63
2023-07-06T12:09:24.246Z,42.48
2023-07-06T12:12:03.593Z,41.83
2023-07-06T12:14:33.915Z,42.20
2023-07-06T12:17:04.055Z,42.20
2023-07-06T12:19:39.270Z,42.28
2023-07-06T12:22:15.033Z,43.11
2023-07-06T12:24:44.390Z,42.64
2023-07-06T12:27:14.487Z,43.15
2023-07-06T12:29:46.872Z,43.33
2023-07-06T12:32:18.499Z,42.90
2023-07-06T12:34:52.125Z,41.95
2023-07-06T12:37:22.578Z,41.99
2023-07-06T12:39:52.721Z,41.90
2023-07-06T12:42:23.930Z,41.54
2023-07-06T12:44:56.483Z,41.59
2023-07-06T12:47:30.155Z,41.49
2023-07-06T12:50:06.187Z,41.93
2023-07-06T12:52:36.046Z,42.49
2023-07-06T12:55:06.828Z,42.95
2023-07-06T12:57:39.567Z,43.24
2023-07-06T13:00:16.504Z,43.08
2023-07-06T13:02:46.689Z,42.78
2023-07-06T13:05:24.931Z,44.56
2023-07-06T13:07:55.302Z,44.12
2023-07-06T13:10:27.654Z,43.02
2023-07-06T13:12:56.524Z,43.72
2023-07-06T13:15:27.528Z,44.72
2023-07-06T13:18:03.967Z,43.94
2023-07-06T13:20:36.437Z,43.55
2023-07-06T13:23:05.740Z,43.96
2023-07-06T13:25:36.000Z,43.69
2023-07-06T13:28:04.960Z,42.83
2023-07-06T13:30:33.741Z,42.89
2023-07-06T13:33:04.436Z,42.07
2023-07-06T13:35:34.879Z,40.98
2023-07-06T13:38:05.442Z,40.89
2023-07-06T13:40:37.530Z,41.33
2023-07-06T13:43:07.771Z,41.27
2023-07-06T13:45:39.143Z,40.28
2023-07-06T13:48:08.513Z,39.60
2023-07-06T13:50:39.327Z,39.53
2023-07-06T13:53:09.249Z,39.62
2023-07-06T13:55:50.031Z,40.90
2023-07-06T13:58:20.091Z,41.55
2023-07-06T14:00:49.050Z,40.44
2023-07-06T14:03:20.397Z,39.52
2023-07-06T14:05:50.927Z,39.38
2023-07-06T14:08:22.137Z,39.11
2023-07-06T14:10:54.279Z,38.71
2023-07-06T14:13:25.461Z,38.82
2023-07-06T14:15:54.995Z,38.02
2023-07-06T14:18:24.783Z,37.52
2023-07-06T14:21:00.997Z,37.39
2023-07-06T14:23:30.369Z,36.96
2023-07-06T14:25:59.146Z,36.65
2023-07-06T14:28:29.184Z,36.79
2023-07-06T14:31:04.254Z,36.01
2023-07-06T14:33:33.397Z,35.73
2023-07-06T14:36:03.600Z,35.88
2023-07-06T14:38:32.442Z,36.10
2023-07-06T14:41:04.137Z,36.65
2023-07-06T14:43:33.830Z,36.45
2023-07-06T14:46:03.736Z,36.19
2023-07-06T14:48:32.675Z,36.30
2023-07-06T14:51:09.312Z,36.28
2023-07-06T14:53:40.736Z,37.12
2023-07-06T14:56:10.872Z,37.16
2023-07-06T14:58:39.584Z,36.93
2023-07-06T15:01:08.512Z,36.58
2023-07-06T15:03:37.386Z,36.71
2023-07-06T15:06:10.604Z,37.55
2023-07-06T15:08:40.101Z,37.75
2023-07-06T15:11:08.968Z,37.72
2023-07-06T15:13:37.872Z,37.48
2023-07-06T15:16:06.838Z,37.89
2023-07-06T15:18:35.951Z,38.00
2023-07-06T15:21:12.060Z,38.16
2023-07-06T15:23:42.508Z,38.35
2023-07-06T15:26:12.605Z,38.55
2023-07-06T15:28:41.601Z,38.44
2023-07-06T15:31:10.710Z,37.72
2023-07-06T15:33:41.308Z,37.67
2023-07-06T15:36:11.628Z,38.16
2023-07-06T15:38:40.627Z,38.41
2023-07-06T15:41:09.607Z,38.80
2023-07-06T15:43:38.689Z,38.40
2023-07-06T15:46:07.775Z,38.17
2023-07-06T15:48:37.431Z,38.46
2023-07-06T15:51:06.727Z,38.68
2023-07-06T15:53:38.409Z,38.19
2023-07-06T15:56:07.736Z,38.40
2023-07-06T15:58:38.063Z,38.57
2023-07-06T16:01:09.066Z,38.46
2023-07-06T16:03:39.173Z,38.55
2023-07-06T16:06:08.237Z,38.74
2023-07-06T16:08:38.727Z,39.40
2023-07-06T16:11:07.578Z,39.96
2023-07-06T16:13:36.519Z,40.50
2023-07-06T16:16:05.755Z,40.29
2023-07-06T16:18:34.535Z,40.64
2023-07-06T16:21:03.990Z,40.36
2023-07-06T16:23:32.503Z,39.71
2023-07-06T16:26:09.767Z,39.73
2023-07-06T16:28:39.494Z,39.79
2023-07-06T16:31:09.307Z,39.94
2023-07-06T16:33:39.260Z,39.89
2023-07-06T16:36:08.039Z,40.18
2023-07-06T16:38:37.183Z,40.05
2023-07-06T16:41:10.771Z,39.93
2023-07-06T16:43:40.048Z,39.83
2023-07-06T16:46:09.216Z,40.34
2023-07-06T16:48:38.656Z,40.17
2023-07-06T16:51:08.047Z,40.72
2023-07-06T16:53:36.509Z,40.98
2023-07-06T16:56:07.403Z,40.82
2023-07-06T16:58:36.803Z,40.74
2023-07-06T17:01:06.639Z,40.33
2023-07-06T17:03:36.328Z,40.76
2023-07-06T17:06:05.698Z,40.64
2023-07-06T17:08:34.289Z,40.96
2023-07-06T17:11:10.355Z,41.18
2023-07-06T17:13:39.438Z,41.46
2023-07-06T17:16:08.712Z,41.72
2023-07-06T17:18:37.742Z,41.59
2023-07-06T17:21:09.830Z,41.89
2023-07-06T17:23:38.694Z,41.82
2023-07-06T17:26:09.020Z,41.68
2023-07-06T17:28:37.994Z,42.17
2023-07-06T17:31:07.911Z,42.46
2023-07-06T17:33:37.019Z,42.22
2023-07-06T17:36:06.508Z,42.78
2023-07-06T17:38:36.056Z,42.79
2023-07-06T17:41:07.353Z,43.36
2023-07-06T17:43:38.928Z,43.53
2023-07-06T17:46:08.156Z,43.64
2023-07-06T17:48:37.777Z,44.08
2023-07-06T17:51:08.996Z,43.97
2023-07-06T17:53:38.247Z,44.43
2023-07-06T17:56:07.277Z,44.67
2023-07-06T17:58:37.614Z,45.28
2023-07-06T18:01:06.606Z,45.37
2023-07-06T18:03:35.553Z,45.35
2023-07-06T18:06:07.365Z,45.36
2023-07-06T18:08:36.198Z,45.32
2023-07-06T18:11:05.555Z,45.43
2023-07-06T18:13:37.633Z,45.88
2023-07-06T18:16:08.137Z,45.89
2023-07-06T18:18:36.991Z,46.29
2023-07-06T18:21:06.295Z,46.53
2023-07-06T18:23:34.844Z,47.30
2023-07-06T18:26:03.785Z,47.30
2023-07-06T18:28:34.288Z,47.00
2023-07-06T18:31:04.855Z,47.50
2023-07-06T18:33:35.085Z,47.87
2023-07-06T18:36:05.466Z,48.43
2023-07-06T18:38:34.276Z,49.06
2023-07-06T18:41:04.865Z,49.35
2023-07-06T18:43:33.898Z,50.02
2023-07-06T18:46:03.121Z,50.71
2023-07-06T18:48:34.794Z,50.38
2023-07-06T18:51:06.034Z,50.63
2023-07-06T18:53:45.217Z,51.06
2023-07-06T18:56:15.957Z,51.34
2023-07-06T18:58:45.297Z,51.65
2023-07-06T19:01:15.320Z,52.29
2023-07-06T19:03:46.152Z,52.37
2023-07-06T19:06:18.885Z,52.15
2023-07-06T19:08:49.683Z,52.34
2023-07-06T19:11:19.003Z,52.52
2023-07-06T19:13:47.774Z,52.63
2023-07-06T19:16:17.360Z,52.79
2023-07-06T19:18:47.544Z,53.20
2023-07-06T19:21:16.453Z,53.67
2023-07-06T19:23:45.666Z,53.74
2023-07-06T19:26:16.114Z,53.59
2023-07-06T19:28:45.017Z,53.83
2023-07-06T19:31:13.887Z,53.87
2023-07-06T19:33:42.760Z,54.36
2023-07-06T19:36:13.508Z,54.57
2023-07-06T19:38:42.432Z,55.03
2023-07-06T19:41:11.797Z,54.82
2023-07-06T19:43:40.427Z,54.50
2023-07-06T19:46:19.545Z,54.95
2023-07-06T19:48:50.208Z,54.52
2023-07-06T19:51:21.911Z,55.20
2023-07-06T19:53:52.366Z,56.05
2023-07-06T19:56:23.132Z,56.33
2023-07-06T19:58:55.065Z,56.32
2023-07-06T20:01:24.587Z,56.90
2023-07-06T20:03:53.260Z,57.42
2023-07-06T20:06:23.622Z,57.92
2023-07-06T20:08:52.384Z,57.77
2023-07-06T20:11:21.119Z,57.93
2023-07-06T20:13:50.567Z,58.05
2023-07-06T20:16:19.437Z,58.24
2023-07-06T20:18:48.358Z,58.45
2023-07-06T20:21:17.179Z,58.24
2023-07-06T20:23:47.444Z,58.38
2023-07-06T20:26:16.625Z,58.73
2023-07-06T20:28:45.498Z,59.33
2023-07-06T20:31:14.479Z,59.69
2023-07-06T20:33:43.276Z,60.07
2023-07-06T20:36:12.203Z,60.13
2023-07-06T20:38:40.889Z,59.90
2023-07-06T20:41:11.193Z,59.71
2023-07-06T20:43:40.127Z,59.75
2023-07-06T20:46:08.994Z,59.55
2023-07-06T20:48:37.848Z,59.84
2023-07-06T20:51:06.709Z,59.57
2023-07-06T20:53:35.541Z,59.74
2023-07-06T20:56:04.306Z,59.94
2023-07-06T20:58:34.566Z,60.35
2023-07-06T21:01:03.393Z,60.92
2023-07-06T21:03:34.772Z,61.20
2023-07-06T21:06:03.786Z,61.05
2023-07-06T21:08:32.961Z,61.40
2023-07-06T21:11:01.879Z,61.74
2023-07-06T21:13:30.967Z,61.78
2023-07-06T21:16:05.539Z,62.70
2023-07-06T21:18:34.780Z,63.36
2023-07-06T21:21:04.325Z,63.75
2023-07-06T21:23:32.968Z,64.49
2023-07-06T21:26:01.797Z,65.23
2023-07-06T21:28:30.648Z,65.63
2023-07-06T21:30:59.680Z,66.28
2023-07-06T21:33:30.270Z,66.69
2023-07-06T21:35:59.145Z,67.04
2023-07-06T21:38:27.963Z,67.36
2023-07-06T21:40:58.375Z,67.73
2023-07-06T21:43:27.650Z,67.91
2023-07-06T21:45:56.470Z,68.11
2023-07-06T21:48:25.442Z,68.50
2023-07-06T21:50:59.854Z,68.27
2023-07-06T21:53:29.070Z,68.46
2023-07-06T21:55:58.995Z,68.76
2023-07-06T21:58:28.247Z,69.31
2023-07-06T22:00:58.378Z,69.65
2023-07-06T22:03:27.664Z,69.95
2023-07-06T22:06:05.160Z,70.25
2023-07-06T22:08:34.581Z,69.75
2023-07-06T22:11:05.303Z,69.70
2023-07-06T22:13:35.558Z,70.05
2023-07-06T22:16:04.675Z,70.10
2023-07-06T22:18:35.218Z,70.34
2023-07-06T22:21:06.200Z,70.44
2023-07-06T22:23:36.147Z,70.62
2023-07-06T22:26:06.677Z,70.68
2023-07-06T22:28:35.805Z,70.68
2023-07-06T22:31:07.614Z,70.80
2023-07-06T22:33:38.642Z,70.98
2023-07-06T22:36:11.478Z,70.81
2023-07-06T22:38:41.713Z,70.39
2023-07-06T22:41:11.122Z,69.69
2023-07-06T22:43:40.097Z,68.89
2023-07-06T22:46:09.522Z,68.85
2023-07-06T22:48:41.142Z,68.82
2023-07-06T22:51:11.735Z,68.59
2023-07-06T22:53:40.337Z,68.78
2023-07-06T22:56:09.419Z,69.06
2023-07-06T22:58:38.281Z,69.62
2023-07-06T23:01:17.529Z,69.72
2023-07-06T23:03:46.689Z,70.04
2023-07-06T23:06:17.660Z,70.54
2023-07-06T23:08:46.925Z,70.57
2023-07-06T23:11:15.915Z,70.86
2023-07-06T23:13:46.310Z,70.88
2023-07-06T23:16:15.212Z,71.52
2023-07-06T23:18:43.951Z,71.43
2023-07-06T23:21:13.020Z,71.58
2023-07-06T23:23:43.876Z,71.95
2023-07-06T23:26:13.205Z,72.05
2023-07-06T23:28:42.055Z,72.04
2023-07-06T23:31:12.676Z,72.06
2023-07-06T23:33:41.657Z,72.38
2023-07-06T23:36:16.836Z,72.59
2023-07-06T23:38:52.292Z,72.62
2023-07-06T23:41:23.145Z,72.50
2023-07-06T23:43:52.326Z,72.73
2023-07-06T23:46:22.353Z,72.72
2023-07-06T23:48:53.476Z,73.03
2023-07-06T23:51:24.778Z,73.11
2023-07-06T23:53:55.144Z,73.28
2023-07-06T23:56:24.156Z,73.41
2023-07-06T23:58:52.974Z,73.54
